AR258 EGKK-EGLL
Flight info
| Callsign | AR258 |
|---|---|
| Flight time | N/A |
| Altitude | 3000 |
| Route | VFR |
| Aircraft | C172/L-V/N |
Departure
| Time | 2026-05-06 13:54 |
|---|---|
| Airport | London Gatwick Airport (EGKK) |
Arrival
| Time | N/A |
|---|---|
| Airport | London Heathrow Airport (EGLL) |
| Time | Latitude | Longitude | Altitude | Speed | Heading |
|---|---|---|---|---|---|
| 2026-05-06 13:17 | 51.14713 | -0.17265 | 205 ft | 0 kts | 149° |
| 2026-05-06 13:35 | 51.14712 | -0.17265 | 198 ft | 1 kts | 146° |
| 2026-05-06 13:35 | 51.14711 | -0.17248 | 202 ft | 3 kts | 51° |
| 2026-05-06 13:35 | 51.14717 | -0.17245 | 201 ft | 0 kts | 357° |
| 2026-05-06 13:36 | 51.14725 | -0.17252 | 200 ft | 4 kts | 315° |
| 2026-05-06 13:36 | 51.14742 | -0.17286 | 198 ft | 3 kts | 318° |
| 2026-05-06 13:36 | 51.14767 | -0.17300 | 198 ft | 6 kts | 352° |
| 2026-05-06 13:36 | 51.14810 | -0.17297 | 198 ft | 5 kts | 28° |
| 2026-05-06 13:37 | 51.14839 | -0.17241 | 201 ft | 8 kts | 66° |
| 2026-05-06 13:37 | 51.14853 | -0.17143 | 197 ft | 11 kts | 77° |
| 2026-05-06 13:37 | 51.14870 | -0.17026 | 197 ft | 10 kts | 77° |
| 2026-05-06 13:37 | 51.14884 | -0.16931 | 197 ft | 8 kts | 77° |
| 2026-05-06 13:38 | 51.14895 | -0.16849 | 197 ft | 7 kts | 78° |
| 2026-05-06 13:38 | 51.14905 | -0.16776 | 196 ft | 6 kts | 77° |
| 2026-05-06 13:38 | 51.14914 | -0.16709 | 208 ft | 6 kts | 78° |
| 2026-05-06 13:38 | 51.14922 | -0.16649 | 196 ft | 5 kts | 77° |
| 2026-05-06 13:39 | 51.14934 | -0.16568 | 196 ft | 11 kts | 76° |
| 2026-05-06 13:39 | 51.14953 | -0.16433 | 196 ft | 12 kts | 78° |
| 2026-05-06 13:39 | 51.15004 | -0.16379 | 196 ft | 8 kts | 353° |
| 2026-05-06 13:39 | 51.15051 | -0.16390 | 196 ft | 6 kts | 348° |
| 2026-05-06 13:40 | 51.15084 | -0.16402 | 199 ft | 4 kts | 347° |
| 2026-05-06 13:40 | 51.15107 | -0.16410 | 196 ft | 4 kts | 347° |
| 2026-05-06 13:40 | 51.15157 | -0.16427 | 200 ft | 11 kts | 348° |
| 2026-05-06 13:40 | 51.15235 | -0.16454 | 196 ft | 10 kts | 347° |
| 2026-05-06 13:41 | 51.15286 | -0.16487 | 196 ft | 7 kts | 310° |
| 2026-05-06 13:41 | 51.15294 | -0.16549 | 196 ft | 5 kts | 264° |
| 2026-05-06 13:41 | 51.15288 | -0.16603 | 196 ft | 5 kts | 259° |
| 2026-05-06 13:41 | 51.15288 | -0.16648 | 196 ft | 4 kts | 270° |
| 2026-05-06 13:42 | 51.15292 | -0.16676 | 202 ft | 1 kts | 287° |
| 2026-05-06 13:42 | 51.15294 | -0.16682 | 200 ft | 2 kts | 312° |
| 2026-05-06 13:42 | 51.15318 | -0.16729 | 196 ft | 7 kts | 259° |
| 2026-05-06 13:42 | 51.15306 | -0.16805 | 197 ft | 8 kts | 255° |
| 2026-05-06 13:43 | 51.15294 | -0.16889 | 197 ft | 8 kts | 257° |
| 2026-05-06 13:43 | 51.15283 | -0.16969 | 197 ft | 7 kts | 258° |
| 2026-05-06 13:43 | 51.15273 | -0.17042 | 204 ft | 6 kts | 257° |
| 2026-05-06 13:43 | 51.15263 | -0.17109 | 197 ft | 6 kts | 258° |
| 2026-05-06 13:44 | 51.15256 | -0.17167 | 201 ft | 5 kts | 259° |
| 2026-05-06 13:44 | 51.15256 | -0.17208 | 198 ft | 3 kts | 306° |
| 2026-05-06 13:44 | 51.15295 | -0.17229 | 198 ft | 12 kts | 335° |
| 2026-05-06 13:44 | 51.15305 | -0.17357 | 199 ft | 11 kts | 266° |
| 2026-05-06 13:45 | 51.15296 | -0.17466 | 200 ft | 9 kts | 261° |
| 2026-05-06 13:45 | 51.15279 | -0.17613 | 201 ft | 5 kts | 257° |
| 2026-05-06 13:45 | 51.15273 | -0.17657 | 208 ft | 4 kts | 258° |
| 2026-05-06 13:46 | 51.15265 | -0.17718 | 201 ft | 6 kts | 258° |
| 2026-05-06 13:46 | 51.15244 | -0.17868 | 207 ft | 18 kts | 257° |
| 2026-05-06 13:46 | 51.15221 | -0.18029 | 201 ft | 2 kts | 258° |
| 2026-05-06 13:46 | 51.15220 | -0.18033 | 201 ft | 0 kts | 252° |
| 2026-05-06 13:47 | 51.15219 | -0.18041 | 201 ft | 0 kts | 255° |
| 2026-05-06 13:47 | 51.15211 | -0.18095 | 206 ft | 14 kts | 257° |
| 2026-05-06 13:47 | 51.15181 | -0.18329 | 204 ft | 26 kts | 258° |
| 2026-05-06 13:48 | 51.15147 | -0.18615 | 200 ft | 25 kts | 259° |
| 2026-05-06 13:48 | 51.15112 | -0.18878 | 204 ft | 23 kts | 257° |
| 2026-05-06 13:48 | 51.15078 | -0.19113 | 200 ft | 20 kts | 257° |
| 2026-05-06 13:48 | 51.15050 | -0.19251 | 202 ft | 8 kts | 265° |
| 2026-05-06 13:49 | 51.15046 | -0.19337 | 200 ft | 7 kts | 262° |
| 2026-05-06 13:49 | 51.15033 | -0.19459 | 200 ft | 16 kts | 261° |
| 2026-05-06 13:49 | 51.15000 | -0.19682 | 204 ft | 25 kts | 257° |
| 2026-05-06 13:49 | 51.14956 | -0.20001 | 204 ft | 33 kts | 258° |
| 2026-05-06 13:50 | 51.14904 | -0.20370 | 197 ft | 33 kts | 258° |
| 2026-05-06 13:50 | 51.14860 | -0.20697 | 197 ft | 28 kts | 257° |
| 2026-05-06 13:50 | 51.14826 | -0.20946 | 201 ft | 21 kts | 258° |
| 2026-05-06 13:50 | 51.14803 | -0.21111 | 197 ft | 11 kts | 256° |
| 2026-05-06 13:51 | 51.14780 | -0.21217 | 201 ft | 10 kts | 258° |
| 2026-05-06 13:51 | 51.14766 | -0.21318 | 199 ft | 9 kts | 255° |
| 2026-05-06 13:51 | 51.14739 | -0.21393 | 196 ft | 8 kts | 217° |
| 2026-05-06 13:51 | 51.14689 | -0.21393 | 196 ft | 8 kts | 158° |
| 2026-05-06 13:52 | 51.14640 | -0.21339 | 196 ft | 8 kts | 152° |
| 2026-05-06 13:52 | 51.14609 | -0.21321 | 197 ft | 0 kts | 165° |
| 2026-05-06 13:53 | 51.14592 | -0.21314 | 203 ft | 8 kts | 164° |
| 2026-05-06 13:53 | 51.14517 | -0.21206 | 201 ft | 18 kts | 105° |
| 2026-05-06 13:53 | 51.14532 | -0.21037 | 205 ft | 13 kts | 77° |
| 2026-05-06 13:53 | 51.14590 | -0.20622 | 202 ft | 62 kts | 77° |
| 2026-05-06 13:54 | 51.14715 | -0.19864 | 326 ft | 78 kts | 75° |
| 2026-05-06 13:54 | 51.14814 | -0.19004 | 574 ft | 75 kts | 75° |
| 2026-05-06 13:54 | 51.14868 | -0.18210 | 884 ft | 74 kts | 80° |
| 2026-05-06 13:54 | 51.14929 | -0.17394 | 1053 ft | 86 kts | 74° |
| 2026-05-06 13:55 | 51.15045 | -0.16360 | 1320 ft | 90 kts | 73° |
| 2026-05-06 13:55 | 51.15197 | -0.15431 | 1609 ft | 83 kts | 55° |
| 2026-05-06 13:55 | 51.15539 | -0.14811 | 1952 ft | 70 kts | 35° |
| 2026-05-06 13:55 | 51.15943 | -0.14312 | 2155 ft | 76 kts | 31° |
| 2026-05-06 13:56 | 51.16416 | -0.14037 | 2393 ft | 74 kts | 355° |
| 2026-05-06 13:56 | 51.16915 | -0.14328 | 2586 ft | 78 kts | 335° |
| 2026-05-06 13:56 | 51.17438 | -0.14790 | 2633 ft | 93 kts | 332° |
| 2026-05-06 13:56 | 51.17911 | -0.15312 | 2946 ft | 87 kts | 328° |
| 2026-05-06 13:57 | 51.18477 | -0.15859 | 2960 ft | 101 kts | 333° |
| 2026-05-06 13:57 | 51.18896 | -0.16253 | 2965 ft | 104 kts | 332° |
| 2026-05-06 13:57 | 51.19714 | -0.16995 | 2959 ft | 106 kts | 333° |
| 2026-05-06 13:57 | 51.20350 | -0.17586 | 2960 ft | 106 kts | 333° |
| 2026-05-06 13:58 | 51.20985 | -0.18185 | 2957 ft | 106 kts | 333° |
| 2026-05-06 13:58 | 51.21622 | -0.18778 | 2956 ft | 106 kts | 333° |
| 2026-05-06 13:58 | 51.22043 | -0.19177 | 2960 ft | 106 kts | 333° |
| 2026-05-06 13:58 | 51.22660 | -0.19844 | 2957 ft | 108 kts | 328° |
| 2026-05-06 13:59 | 51.23271 | -0.20538 | 2958 ft | 108 kts | 328° |
| 2026-05-06 13:59 | 51.23873 | -0.21245 | 2961 ft | 108 kts | 328° |
| 2026-05-06 13:59 | 51.24433 | -0.21904 | 2966 ft | 107 kts | 328° |
| 2026-05-06 13:59 | 51.25057 | -0.22640 | 2957 ft | 107 kts | 328° |
| 2026-05-06 14:00 | 51.25642 | -0.23330 | 2946 ft | 103 kts | 328° |
| 2026-05-06 14:00 | 51.26204 | -0.24003 | 2957 ft | 101 kts | 328° |
| 2026-05-06 14:00 | 51.26770 | -0.24685 | 2964 ft | 106 kts | 327° |
| 2026-05-06 14:00 | 51.27371 | -0.25390 | 2962 ft | 108 kts | 328° |
| 2026-05-06 14:01 | 51.27972 | -0.26099 | 2968 ft | 108 kts | 327° |
| 2026-05-06 14:01 | 51.28594 | -0.26826 | 2964 ft | 112 kts | 328° |
| 2026-05-06 14:01 | 51.29230 | -0.27553 | 2963 ft | 112 kts | 328° |
| 2026-05-06 14:01 | 51.29854 | -0.28279 | 2963 ft | 110 kts | 327° |
| 2026-05-06 14:02 | 51.30461 | -0.29003 | 2958 ft | 107 kts | 327° |
| 2026-05-06 14:02 | 51.31057 | -0.29719 | 2960 ft | 108 kts | 328° |
| 2026-05-06 14:02 | 51.31658 | -0.30436 | 2961 ft | 108 kts | 328° |
| 2026-05-06 14:02 | 51.32248 | -0.31157 | 2954 ft | 107 kts | 328° |
| 2026-05-06 14:03 | 51.32836 | -0.31867 | 2957 ft | 105 kts | 327° |
| 2026-05-06 14:03 | 51.33423 | -0.32576 | 2976 ft | 106 kts | 327° |
| 2026-05-06 14:03 | 51.34003 | -0.33267 | 2971 ft | 104 kts | 328° |
| 2026-05-06 14:03 | 51.34581 | -0.33952 | 2974 ft | 103 kts | 328° |
| 2026-05-06 14:04 | 51.35166 | -0.34637 | 2976 ft | 105 kts | 328° |
| 2026-05-06 14:04 | 51.35763 | -0.35320 | 2976 ft | 106 kts | 328° |
| 2026-05-06 14:04 | 51.36348 | -0.36020 | 2981 ft | 104 kts | 328° |
| 2026-05-06 14:04 | 51.36930 | -0.36719 | 2978 ft | 105 kts | 328° |
| 2026-05-06 14:05 | 51.37513 | -0.37407 | 2980 ft | 104 kts | 328° |
| 2026-05-06 14:05 | 51.38079 | -0.38094 | 2979 ft | 102 kts | 328° |
| 2026-05-06 14:05 | 51.38645 | -0.38787 | 2977 ft | 103 kts | 327° |
| 2026-05-06 14:05 | 51.39219 | -0.39478 | 2978 ft | 104 kts | 328° |
| 2026-05-06 14:06 | 51.39786 | -0.40191 | 2993 ft | 102 kts | 329° |
| 2026-05-06 14:06 | 51.40365 | -0.40893 | 2984 ft | 105 kts | 327° |
| 2026-05-06 14:06 | 51.40950 | -0.41584 | 2985 ft | 104 kts | 327° |
| 2026-05-06 14:06 | 51.41531 | -0.42272 | 2988 ft | 104 kts | 327° |
| 2026-05-06 14:07 | 51.42115 | -0.42959 | 2988 ft | 104 kts | 327° |
| 2026-05-06 14:07 | 51.42713 | -0.43594 | 2961 ft | 104 kts | 336° |
| 2026-05-06 14:07 | 51.43350 | -0.44058 | 2868 ft | 98 kts | 342° |
| 2026-05-06 14:07 | 51.43985 | -0.44347 | 2737 ft | 88 kts | 348° |
| 2026-05-06 14:08 | 51.44574 | -0.44536 | 2636 ft | 83 kts | 352° |
| 2026-05-06 14:08 | 51.45143 | -0.44703 | 2590 ft | 81 kts | 350° |
| 2026-05-06 14:08 | 51.45710 | -0.44910 | 2479 ft | 88 kts | 349° |
| 2026-05-06 14:08 | 51.46319 | -0.45150 | 2371 ft | 92 kts | 348° |
| 2026-05-06 14:09 | 51.46960 | -0.45344 | 2208 ft | 94 kts | 350° |
| 2026-05-06 14:09 | 51.47595 | -0.45547 | 2126 ft | 91 kts | 348° |
| 2026-05-06 14:09 | 51.48179 | -0.45725 | 2204 ft | 82 kts | 350° |
| 2026-05-06 14:09 | 51.48692 | -0.46128 | 2224 ft | 87 kts | 322° |
| 2026-05-06 14:10 | 51.48951 | -0.47054 | 2231 ft | 99 kts | 284° |
| 2026-05-06 14:10 | 51.48999 | -0.48186 | 2090 ft | 102 kts | 278° |
| 2026-05-06 14:10 | 51.48982 | -0.49238 | 1998 ft | 86 kts | 271° |
| 2026-05-06 14:10 | 51.48912 | -0.50153 | 1852 ft | 90 kts | 265° |
| 2026-05-06 14:11 | 51.48627 | -0.51124 | 1597 ft | 104 kts | 242° |
| 2026-05-06 14:11 | 51.48144 | -0.51873 | 1500 ft | 91 kts | 201° |
| 2026-05-06 14:11 | 51.47772 | -0.51871 | 1310 ft | 94 kts | 159° |